createdAt,value
2022-12-05T00:02:27.324Z,3.65
2022-12-05T00:04:55.718Z,3.62
2022-12-05T00:07:24.151Z,3.65
2022-12-05T00:09:52.638Z,3.65
2022-12-05T00:12:21.287Z,3.67
2022-12-05T00:14:51.833Z,3.66
2022-12-05T00:17:20.575Z,3.67
2022-12-05T00:19:53.721Z,3.56
2022-12-05T00:22:25.458Z,3.63
2022-12-05T00:24:54.049Z,3.55
2022-12-05T00:27:22.706Z,3.64
2022-12-05T00:29:52.581Z,3.66
2022-12-05T00:32:20.992Z,3.53
2022-12-05T00:34:49.392Z,3.67
2022-12-05T00:37:17.824Z,3.67
2022-12-05T00:39:46.306Z,3.69
2022-12-05T00:42:14.812Z,3.68
2022-12-05T00:44:43.240Z,3.69
2022-12-05T00:47:13.566Z,3.54
2022-12-05T00:49:42.109Z,3.66
2022-12-05T00:52:10.576Z,3.63
2022-12-05T00:54:43.386Z,3.62
2022-12-05T00:57:11.836Z,3.52
2022-12-05T00:59:41.654Z,3.64
2022-12-05T01:02:10.145Z,3.64
2022-12-05T01:04:40.213Z,3.65
2022-12-05T01:07:08.671Z,3.65
2022-12-05T01:09:37.017Z,3.65
2022-12-05T01:12:05.949Z,3.65
2022-12-05T01:14:35.126Z,3.65
2022-12-05T01:17:03.588Z,3.65
2022-12-05T01:19:34.019Z,3.65
2022-12-05T01:22:03.822Z,3.70
2022-12-05T01:24:32.507Z,3.69
2022-12-05T01:27:00.845Z,3.54
2022-12-05T01:29:29.553Z,3.66
2022-12-05T01:31:58.349Z,3.67
2022-12-05T01:34:27.807Z,3.63
2022-12-05T01:36:56.258Z,3.68
2022-12-05T01:39:26.047Z,3.69
2022-12-05T01:41:54.495Z,3.68
2022-12-05T01:45:01.751Z,3.70
2022-12-05T01:47:32.241Z,3.69
2022-12-05T01:50:02.168Z,3.68
2022-12-05T01:52:32.753Z,3.70
2022-12-05T01:55:08.434Z,3.68
2022-12-05T01:57:36.883Z,3.69
2022-12-05T02:00:11.032Z,3.66
2022-12-05T02:02:40.740Z,3.64
2022-12-05T02:05:13.317Z,3.66
2022-12-05T02:07:44.036Z,3.62
2022-12-05T02:10:14.212Z,3.65
2022-12-05T02:12:45.113Z,3.65
2022-12-05T02:15:30.450Z,3.53
2022-12-05T02:18:11.176Z,3.48
2022-12-05T02:20:50.067Z,3.60
2022-12-05T02:23:51.391Z,3.55
2022-12-05T02:26:43.393Z,3.56
2022-12-05T02:30:05.943Z,3.58
2022-12-05T02:32:48.030Z,3.56
2022-12-05T02:35:29.496Z,3.52
2022-12-05T02:38:10.137Z,3.54
2022-12-05T02:40:52.096Z,3.53
2022-12-05T02:43:25.659Z,3.55
2022-12-05T02:46:00.254Z,3.52
2022-12-05T02:48:30.314Z,3.52
2022-12-05T02:51:01.937Z,3.52
2022-12-05T02:53:33.149Z,3.46
2022-12-05T02:56:02.756Z,3.48
2022-12-05T02:58:35.373Z,3.47
2022-12-05T03:01:05.863Z,3.47
2022-12-05T03:03:36.050Z,3.40
2022-12-05T03:06:09.656Z,3.42
2022-12-05T03:08:41.723Z,3.47
2022-12-05T03:11:11.277Z,3.45
2022-12-05T03:13:46.245Z,3.45
2022-12-05T03:16:29.672Z,3.42
2022-12-05T03:19:03.038Z,3.37
2022-12-05T03:21:36.361Z,3.43
2022-12-05T03:24:08.338Z,3.38
2022-12-05T03:26:44.625Z,3.38
2022-12-05T03:29:26.125Z,3.38
2022-12-05T03:32:05.391Z,3.32
2022-12-05T03:34:43.996Z,3.37
2022-12-05T03:37:16.684Z,3.38
2022-12-05T03:39:51.335Z,3.34
2022-12-05T03:42:25.570Z,3.37
2022-12-05T03:44:58.955Z,3.38
2022-12-05T03:47:38.509Z,3.41
2022-12-05T03:50:13.043Z,3.38
2022-12-05T03:53:17.867Z,3.39
2022-12-05T03:55:40.048Z,3.36
2022-12-05T03:58:12.293Z,3.38
2022-12-05T04:00:45.258Z,3.37
2022-12-05T04:03:19.756Z,3.39
2022-12-05T04:05:51.406Z,3.36
2022-12-05T04:08:24.005Z,3.26
2022-12-05T04:10:55.169Z,3.35
2022-12-05T04:13:28.723Z,3.32
2022-12-05T04:16:20.724Z,3.34
2022-12-05T04:18:55.928Z,3.36
2022-12-05T04:21:41.137Z,3.35
2022-12-05T04:24:31.417Z,3.34
2022-12-05T04:27:12.149Z,3.35
2022-12-05T04:29:47.207Z,3.34
2022-12-05T04:32:16.023Z,3.33
2022-12-05T04:34:52.397Z,3.32
2022-12-05T04:37:26.512Z,3.31
2022-12-05T04:40:00.462Z,3.28
2022-12-05T04:42:32.642Z,3.28
2022-12-05T04:45:05.168Z,3.28
2022-12-05T04:47:38.661Z,3.31
2022-12-05T04:50:12.120Z,3.27
2022-12-05T04:52:42.114Z,3.31
2022-12-05T04:55:14.026Z,3.26
2022-12-05T04:57:51.113Z,3.28
2022-12-05T05:00:20.259Z,3.29
2022-12-05T05:02:57.486Z,3.24
2022-12-05T05:05:29.334Z,3.27
2022-12-05T05:07:57.887Z,3.18
2022-12-05T05:10:32.665Z,3.26
2022-12-05T05:13:01.063Z,3.27
2022-12-05T05:15:29.473Z,3.21
2022-12-05T05:17:57.788Z,3.26
2022-12-05T05:20:28.644Z,3.28
2022-12-05T05:22:58.914Z,3.35
2022-12-05T05:25:27.684Z,3.39
2022-12-05T05:27:57.804Z,3.40
2022-12-05T05:30:26.884Z,3.41
2022-12-05T05:33:01.960Z,3.42
2022-12-05T05:35:38.889Z,3.42
2022-12-05T05:38:07.477Z,3.44
2022-12-05T05:40:37.825Z,3.44
2022-12-05T05:43:06.564Z,3.47
2022-12-05T05:45:36.982Z,3.41
2022-12-05T05:48:05.925Z,3.42
2022-12-05T05:50:35.748Z,3.48
2022-12-05T05:53:04.374Z,3.50
2022-12-05T05:55:34.501Z,3.50
2022-12-05T05:58:03.164Z,3.52
2022-12-05T06:00:31.499Z,3.45
2022-12-05T06:03:00.108Z,3.48
2022-12-05T06:05:28.660Z,3.50
2022-12-05T06:07:58.463Z,3.52
2022-12-05T06:10:27.194Z,3.54
2022-12-05T06:12:55.965Z,3.57
2022-12-05T06:15:24.597Z,3.55
2022-12-05T06:17:53.079Z,3.51
2022-12-05T06:20:21.463Z,3.45
2022-12-05T06:22:49.870Z,3.35
2022-12-05T06:25:19.720Z,3.47
2022-12-05T06:27:48.212Z,3.51
2022-12-05T06:30:17.113Z,3.46
2022-12-05T06:32:45.871Z,3.41
2022-12-05T06:35:16.597Z,3.51
2022-12-05T06:37:45.400Z,3.58
2022-12-05T06:40:14.436Z,3.56
2022-12-05T06:42:44.237Z,3.53
2022-12-05T06:45:13.508Z,3.51
2022-12-05T06:47:41.899Z,3.59
2022-12-05T06:50:11.113Z,3.57
2022-12-05T06:52:39.522Z,3.60
2022-12-05T06:55:08.686Z,3.63
2022-12-05T06:57:37.191Z,3.62
2022-12-05T07:00:25.932Z,3.64
2022-12-05T07:02:54.489Z,3.61
2022-12-05T07:05:23.080Z,3.61
2022-12-05T07:07:51.645Z,3.59
2022-12-05T07:10:20.659Z,3.56
2022-12-05T07:12:49.056Z,3.60
2022-12-05T07:15:19.163Z,3.61
2022-12-05T07:17:47.604Z,3.64
2022-12-05T07:20:18.116Z,3.67
2022-12-05T07:22:47.138Z,3.66
2022-12-05T07:25:15.670Z,3.67
2022-12-05T07:27:44.005Z,3.65
2022-12-05T07:30:13.103Z,3.71
2022-12-05T07:32:42.902Z,3.62
2022-12-05T07:35:11.273Z,3.69
2022-12-05T07:37:39.629Z,3.72
2022-12-05T07:40:10.845Z,3.75
2022-12-05T07:42:39.654Z,3.74
2022-12-05T07:45:09.490Z,3.77
2022-12-05T07:47:37.963Z,3.80
2022-12-05T07:50:09.288Z,3.79
2022-12-05T07:52:37.704Z,3.82
2022-12-05T07:55:07.119Z,3.80
2022-12-05T07:57:35.813Z,3.83
2022-12-05T08:00:04.848Z,3.79
2022-12-05T08:02:36.532Z,3.82
2022-12-05T08:05:09.556Z,3.81
2022-12-05T08:07:37.991Z,3.72
2022-12-05T08:10:07.771Z,3.90
2022-12-05T08:12:36.346Z,3.95
2022-12-05T08:15:04.849Z,3.91
2022-12-05T08:17:33.788Z,3.88
2022-12-05T08:20:02.823Z,3.92
2022-12-05T08:22:32.745Z,3.91
2022-12-05T08:25:01.201Z,3.94
2022-12-05T08:27:29.940Z,3.94
2022-12-05T08:29:58.899Z,3.80
2022-12-05T08:32:27.656Z,3.86
2022-12-05T08:34:56.138Z,3.96
2022-12-05T08:37:24.628Z,3.95
2022-12-05T08:39:54.721Z,3.95
2022-12-05T08:42:23.412Z,3.96
2022-12-05T08:44:52.613Z,3.98
2022-12-05T08:47:21.026Z,3.97
2022-12-05T08:49:49.392Z,3.98
2022-12-05T08:52:17.850Z,3.98
2022-12-05T08:54:46.479Z,3.96
2022-12-05T08:57:16.569Z,3.90
2022-12-05T08:59:45.103Z,3.99
2022-12-05T09:02:13.754Z,3.90
2022-12-05T09:04:42.194Z,4.00
2022-12-05T09:07:10.769Z,3.91
2022-12-05T09:09:39.523Z,3.99
2022-12-05T09:12:07.893Z,3.82
2022-12-05T09:14:37.817Z,3.90
2022-12-05T09:17:07.291Z,3.98
2022-12-05T09:19:35.824Z,3.98
2022-12-05T09:22:04.243Z,4.01
2022-12-05T09:24:33.024Z,4.04
2022-12-05T09:27:01.412Z,4.05
2022-12-05T09:29:29.892Z,4.07
2022-12-05T09:31:59.730Z,4.09
2022-12-05T09:34:28.817Z,4.12
2022-12-05T09:37:10.527Z,4.11
2022-12-05T09:39:45.403Z,4.10
2022-12-05T09:42:40.961Z,4.06
2022-12-05T09:45:29.522Z,4.14
2022-12-05T09:48:02.575Z,4.17
2022-12-05T09:50:35.665Z,4.18
2022-12-05T09:53:12.466Z,4.21
2022-12-05T09:55:48.934Z,4.20
2022-12-05T09:58:29.610Z,4.20
2022-12-05T10:01:04.970Z,4.21
2022-12-05T10:03:42.779Z,4.24
2022-12-05T10:06:16.880Z,4.22
2022-12-05T10:09:02.481Z,4.26
2022-12-05T10:11:37.667Z,4.30
2022-12-05T10:14:15.158Z,4.29
2022-12-05T10:16:50.130Z,4.29
2022-12-05T10:19:23.837Z,4.20
2022-12-05T10:21:59.219Z,4.34
2022-12-05T10:24:33.712Z,4.40
2022-12-05T10:27:07.049Z,4.42
2022-12-05T10:29:39.621Z,4.41
2022-12-05T10:32:14.621Z,4.20
2022-12-05T10:34:45.945Z,4.39
2022-12-05T10:37:18.499Z,4.41
2022-12-05T10:39:47.822Z,4.39
2022-12-05T10:42:18.974Z,4.39
2022-12-05T10:44:47.609Z,4.42
2022-12-05T10:47:16.035Z,4.44
2022-12-05T10:49:47.326Z,4.49
2022-12-05T10:52:16.863Z,4.48
2022-12-05T10:54:49.137Z,4.51
2022-12-05T10:57:24.751Z,4.54
2022-12-05T10:59:54.741Z,4.55
2022-12-05T11:02:27.685Z,4.59
2022-12-05T11:04:59.097Z,4.50
2022-12-05T11:07:33.081Z,4.63
2022-12-05T11:10:03.737Z,4.67
2022-12-05T11:12:39.064Z,4.69
2022-12-05T11:15:22.737Z,4.68
2022-12-05T11:17:52.918Z,4.70
2022-12-05T11:20:42.161Z,4.70
2022-12-05T11:23:26.823Z,4.72
2022-12-05T11:25:56.285Z,4.74
2022-12-05T11:28:46.867Z,4.75
2022-12-05T11:31:29.603Z,4.78
2022-12-05T11:34:16.150Z,4.78
2022-12-05T11:36:51.819Z,4.80
2022-12-05T11:39:20.654Z,4.75
2022-12-05T11:42:13.091Z,4.81
2022-12-05T11:45:01.543Z,4.83
2022-12-05T11:47:45.324Z,4.84
2022-12-05T11:50:26.392Z,4.85
2022-12-05T11:53:13.135Z,4.82
2022-12-05T11:55:47.495Z,4.88
2022-12-05T11:58:56.070Z,4.93
2022-12-05T12:01:38.243Z,4.93
2022-12-05T12:04:29.727Z,4.93
2022-12-05T12:07:11.521Z,4.98
2022-12-05T12:09:51.801Z,4.96
2022-12-05T12:12:30.281Z,4.89
2022-12-05T12:15:10.366Z,5.03
2022-12-05T12:17:47.478Z,5.03
2022-12-05T12:20:37.018Z,5.04
2022-12-05T12:23:25.875Z,5.07
2022-12-05T12:26:07.198Z,5.03
2022-12-05T12:28:41.818Z,5.07
2022-12-05T12:31:25.340Z,5.08
2022-12-05T12:34:03.377Z,5.10
2022-12-05T12:36:39.312Z,5.13
2022-12-05T12:39:21.113Z,5.03
2022-12-05T12:42:13.558Z,5.09
2022-12-05T12:45:06.087Z,5.06
2022-12-05T12:47:46.519Z,5.14
2022-12-05T12:50:20.326Z,5.14
2022-12-05T12:53:34.905Z,4.97
2022-12-05T12:56:14.160Z,5.02
2022-12-05T12:58:52.542Z,5.16
2022-12-05T13:01:33.309Z,5.13
2022-12-05T13:04:06.860Z,5.17
2022-12-05T13:06:42.958Z,5.17
2022-12-05T13:09:20.022Z,5.18
2022-12-05T13:11:51.711Z,5.20
2022-12-05T13:14:27.711Z,5.21
2022-12-05T13:16:58.639Z,5.25
2022-12-05T13:19:37.508Z,5.25
2022-12-05T13:22:07.264Z,5.28
2022-12-05T13:24:36.382Z,5.29
2022-12-05T13:27:09.688Z,5.27
2022-12-05T13:29:44.515Z,5.26
2022-12-05T13:32:29.841Z,5.26
2022-12-05T13:35:00.511Z,5.21
2022-12-05T13:37:48.324Z,5.26
2022-12-05T13:40:45.874Z,5.31
2022-12-05T13:43:16.827Z,5.31
2022-12-05T13:46:04.523Z,5.33
2022-12-05T13:48:35.983Z,5.34
2022-12-05T13:51:08.703Z,5.36
2022-12-05T13:53:41.637Z,5.35
2022-12-05T13:56:29.459Z,5.26
2022-12-05T13:58:59.770Z,5.39
2022-12-05T14:01:55.837Z,5.41
2022-12-05T14:04:50.604Z,5.42
2022-12-05T14:07:39.121Z,5.40
2022-12-05T14:10:09.288Z,5.41
2022-12-05T14:13:25.597Z,5.44
2022-12-05T14:15:55.289Z,5.45
2022-12-05T14:18:33.488Z,5.42
2022-12-05T14:21:09.299Z,5.30
2022-12-05T14:23:52.589Z,5.42
2022-12-05T14:26:36.444Z,5.42
2022-12-05T14:29:25.803Z,5.40
2022-12-05T14:32:10.305Z,5.43
2022-12-05T14:34:54.262Z,5.39
2022-12-05T14:37:28.948Z,5.44
2022-12-05T14:40:00.117Z,5.45
2022-12-05T14:42:37.791Z,5.46
2022-12-05T14:45:26.876Z,5.48
2022-12-05T14:48:00.605Z,5.44
2022-12-05T14:50:48.111Z,5.49
2022-12-05T14:53:36.572Z,5.49
2022-12-05T14:56:23.696Z,5.48
2022-12-05T14:58:59.065Z,5.48
2022-12-05T15:01:30.275Z,5.49
2022-12-05T15:04:09.933Z,5.52
2022-12-05T15:06:50.123Z,5.48
2022-12-05T15:09:38.327Z,5.40
2022-12-05T15:12:13.832Z,5.51
2022-12-05T15:14:48.412Z,5.56
2022-12-05T15:17:24.620Z,5.62
2022-12-05T15:19:57.748Z,5.65
2022-12-05T15:22:29.573Z,5.65
2022-12-05T15:24:58.187Z,5.69
2022-12-05T15:27:26.910Z,5.66
2022-12-05T15:29:56.907Z,5.70
2022-12-05T15:32:29.141Z,5.72
2022-12-05T15:35:05.301Z,5.72
2022-12-05T15:37:46.313Z,5.73
2022-12-05T15:40:18.097Z,5.75
2022-12-05T15:42:47.802Z,5.74
2022-12-05T15:45:26.796Z,5.73
2022-12-05T15:47:57.522Z,5.83
2022-12-05T15:50:32.814Z,5.73
2022-12-05T15:53:07.310Z,5.83
2022-12-05T15:55:41.905Z,5.82
2022-12-05T15:58:19.448Z,5.90
2022-12-05T16:00:52.647Z,5.91
2022-12-05T16:03:55.065Z,5.95
2022-12-05T16:06:29.839Z,5.94
2022-12-05T16:09:01.936Z,5.93
2022-12-05T16:11:30.547Z,5.98
2022-12-05T16:14:03.001Z,5.99
2022-12-05T16:16:35.751Z,6.00
2022-12-05T16:19:07.297Z,6.04
2022-12-05T16:21:39.279Z,6.00
2022-12-05T16:24:17.938Z,6.06
2022-12-05T16:26:58.106Z,6.05
2022-12-05T16:29:28.761Z,6.04
2022-12-05T16:31:58.466Z,6.03
2022-12-05T16:34:28.629Z,6.10
2022-12-05T16:36:59.026Z,6.12
2022-12-05T16:39:30.208Z,6.02
2022-12-05T16:41:58.717Z,6.15
2022-12-05T16:45:15.593Z,6.15
2022-12-05T16:47:59.123Z,6.18
2022-12-05T16:50:32.751Z,6.19
2022-12-05T16:53:15.939Z,6.19
2022-12-05T16:55:46.417Z,6.02
2022-12-05T16:58:22.492Z,6.17
2022-12-05T17:00:51.488Z,6.20
2022-12-05T17:03:36.232Z,6.22
2022-12-05T17:06:05.194Z,6.24
2022-12-05T17:08:36.967Z,6.22
2022-12-05T17:11:07.294Z,6.25
2022-12-05T17:13:35.824Z,6.23
2022-12-05T17:16:04.663Z,6.25
2022-12-05T17:18:33.056Z,6.28
2022-12-05T17:21:03.633Z,6.24
2022-12-05T17:23:32.019Z,6.31
2022-12-05T17:26:01.064Z,6.27
2022-12-05T17:28:31.176Z,6.32
2022-12-05T17:30:59.800Z,6.24
2022-12-05T17:33:28.230Z,6.29
2022-12-05T17:35:56.699Z,6.29
2022-12-05T17:38:25.501Z,6.29
2022-12-05T17:40:53.934Z,6.28
2022-12-05T17:43:25.268Z,6.31
2022-12-05T17:45:55.644Z,6.22
2022-12-05T17:48:26.926Z,6.29
2022-12-05T17:50:57.904Z,6.32
2022-12-05T17:53:29.557Z,6.31
2022-12-05T17:55:57.995Z,6.28
2022-12-05T17:58:27.212Z,6.36
2022-12-05T18:00:57.167Z,6.22
2022-12-05T18:03:26.150Z,6.38
2022-12-05T18:05:56.804Z,6.37
2022-12-05T18:08:28.377Z,6.39
2022-12-05T18:10:57.603Z,6.38
2022-12-05T18:13:25.946Z,6.42
2022-12-05T18:15:59.409Z,6.43
2022-12-05T18:18:29.667Z,6.43
2022-12-05T18:21:06.588Z,6.43
2022-12-05T18:23:36.730Z,6.47
2022-12-05T18:26:07.257Z,6.39
2022-12-05T18:28:36.550Z,6.47
2022-12-05T18:31:08.833Z,6.49
2022-12-05T18:33:37.383Z,6.33
2022-12-05T18:36:08.576Z,6.49
2022-12-05T18:38:41.004Z,6.45
2022-12-05T18:41:10.481Z,6.46
2022-12-05T18:43:40.279Z,6.34
2022-12-05T18:46:10.510Z,6.38
2022-12-05T18:48:41.721Z,6.45
2022-12-05T18:51:13.658Z,6.52
2022-12-05T18:53:43.067Z,6.46
2022-12-05T18:56:22.408Z,6.53
2022-12-05T18:58:55.811Z,6.53
2022-12-05T19:01:26.774Z,6.54
2022-12-05T19:03:56.519Z,6.53
2022-12-05T19:06:27.126Z,6.53
2022-12-05T19:08:56.722Z,6.39
2022-12-05T19:11:27.474Z,6.50
2022-12-05T19:13:57.413Z,6.46
2022-12-05T19:16:29.328Z,6.41
2022-12-05T19:19:00.335Z,6.48
2022-12-05T19:21:30.269Z,6.51
2022-12-05T19:23:59.372Z,6.51
2022-12-05T19:26:27.899Z,6.52
2022-12-05T19:29:05.330Z,6.51
2022-12-05T19:31:37.336Z,6.52
2022-12-05T19:34:07.983Z,6.53
2022-12-05T19:36:38.718Z,6.50
2022-12-05T19:39:12.245Z,6.36
2022-12-05T19:41:41.165Z,6.50
2022-12-05T19:44:10.596Z,6.50
2022-12-05T19:46:40.976Z,6.49
2022-12-05T19:49:11.856Z,6.47
2022-12-05T19:51:40.853Z,6.44
2022-12-05T19:54:12.597Z,6.38
2022-12-05T19:56:41.956Z,6.34
2022-12-05T19:59:11.690Z,6.33
2022-12-05T20:01:42.596Z,6.34
2022-12-05T20:04:14.130Z,6.32
2022-12-05T20:06:45.041Z,6.33
2022-12-05T20:09:16.080Z,6.32
2022-12-05T20:11:53.907Z,6.31
2022-12-05T20:14:24.464Z,6.29
2022-12-05T20:16:54.318Z,6.17
2022-12-05T20:19:23.450Z,6.25
2022-12-05T20:21:52.436Z,6.34
2022-12-05T20:24:20.822Z,6.38
2022-12-05T20:26:49.266Z,6.23
2022-12-05T20:29:17.661Z,6.32
2022-12-05T20:31:46.118Z,6.28
2022-12-05T20:34:16.517Z,6.21
2022-12-05T20:36:45.013Z,6.24
2022-12-05T20:39:16.521Z,6.28
2022-12-05T20:41:45.663Z,6.27
2022-12-05T20:44:17.237Z,6.27
2022-12-05T20:46:45.921Z,6.26
2022-12-05T20:49:15.912Z,6.26
2022-12-05T20:51:46.242Z,6.25
2022-12-05T20:54:17.241Z,6.23
2022-12-05T20:56:47.142Z,6.22
2022-12-05T20:59:16.328Z,6.22
2022-12-05T21:01:47.236Z,6.19
2022-12-05T21:04:17.600Z,6.18
2022-12-05T21:06:46.856Z,6.19
2022-12-05T21:09:26.978Z,6.19
2022-12-05T21:11:55.422Z,6.23
2022-12-05T21:14:25.308Z,6.23
2022-12-05T21:16:53.974Z,6.23
2022-12-05T21:19:24.212Z,6.24
2022-12-05T21:21:54.293Z,6.12
2022-12-05T21:24:24.024Z,6.26
2022-12-05T21:26:53.403Z,6.29
2022-12-05T21:29:21.931Z,6.17
2022-12-05T21:31:52.694Z,6.31
2022-12-05T21:34:22.658Z,6.33
2022-12-05T21:36:53.020Z,6.34
2022-12-05T21:39:22.013Z,6.37
2022-12-05T21:41:50.870Z,6.37
2022-12-05T21:44:20.756Z,6.39
2022-12-05T21:46:50.162Z,6.38
2022-12-05T21:49:19.014Z,6.36
2022-12-05T21:51:47.370Z,6.36
2022-12-05T21:54:17.692Z,6.39
2022-12-05T21:56:46.424Z,6.44
2022-12-05T21:59:15.402Z,6.47
2022-12-05T22:01:43.793Z,6.48
2022-12-05T22:04:12.481Z,6.48
2022-12-05T22:06:40.837Z,6.45
2022-12-05T22:09:09.664Z,6.56
2022-12-05T22:11:39.438Z,6.57
2022-12-05T22:14:09.054Z,6.57
2022-12-05T22:16:37.856Z,6.56
2022-12-05T22:19:06.956Z,6.54
2022-12-05T22:21:36.392Z,6.56
2022-12-05T22:24:05.500Z,6.56
2022-12-05T22:26:34.470Z,6.48
2022-12-05T22:29:05.179Z,6.55
2022-12-05T22:31:35.062Z,6.53
2022-12-05T22:34:03.549Z,6.56
2022-12-05T22:36:32.040Z,6.55
2022-12-05T22:39:00.405Z,6.57
2022-12-05T22:41:29.353Z,6.43
2022-12-05T22:44:00.032Z,6.53
2022-12-05T22:46:30.726Z,6.49
2022-12-05T22:48:59.741Z,6.59
2022-12-05T22:51:28.458Z,6.58
2022-12-05T22:53:57.500Z,6.60
2022-12-05T22:56:28.150Z,6.60
2022-12-05T22:58:57.802Z,6.61
2022-12-05T23:01:28.746Z,6.61
2022-12-05T23:04:00.478Z,6.60
2022-12-05T23:06:29.754Z,6.52
2022-12-05T23:08:58.456Z,6.61
2022-12-05T23:11:27.897Z,6.62
2022-12-05T23:14:01.503Z,6.61
2022-12-05T23:16:32.525Z,6.63
2022-12-05T23:19:04.765Z,6.63
2022-12-05T23:21:35.520Z,6.62
2022-12-05T23:24:06.052Z,6.60
2022-12-05T23:26:37.611Z,6.98
2022-12-05T23:29:06.551Z,7.04
2022-12-05T23:31:35.314Z,6.98
2022-12-05T23:34:05.522Z,6.90
2022-12-05T23:36:35.378Z,6.87
2022-12-05T23:39:04.401Z,6.84
2022-12-05T23:41:33.298Z,6.79
2022-12-05T23:44:02.133Z,6.76
2022-12-05T23:46:30.919Z,6.73
2022-12-05T23:48:59.544Z,6.74
2022-12-05T23:51:30.686Z,6.72
2022-12-05T23:54:00.992Z,6.71
2022-12-05T23:56:32.564Z,6.73
2022-12-05T23:59:01.732Z,6.71
